This is the latest recevied weather packets stored in our database for station/object N4QEP-13. If no packets are shown the sender has not sent any weather packets the latest 10 day(s).
| Time | Temp. | Humidity | Pressure | Rain* | Wind** | Luminosity | Snow |
|---|---|---|---|---|---|---|---|
| 1777421747 | 23.33° C | 68% | 1018.3 hPa | 0 mm | - | - | - |
| 1777420839 | 23.89° C | 68% | 1018.5 hPa | 0 mm | - | - | - |
| 1777419941 | 24.44° C | 66% | 1018.4 hPa | 0 mm | - | - | - |
| 1777419010 | 24.44° C | 66% | 1018.3 hPa | 0 mm | - | - | - |
| 1777418108 | 25° C | 64% | 1017.9 hPa | 0 mm | - | - | - |
| 1777417205 | 25.56° C | 63% | 1017.7 hPa | 0 mm | - | - | - |
| 1777416305 | 26.11° C | 63% | 1017.9 hPa | 0 mm | - | - | - |
| 1777415409 | 26.67° C | 61% | 1018 hPa | 0 mm | - | - | - |
| 1777414504 | 27.22° C | 59% | 1017.9 hPa | 0 mm | - | - | - |
| 1777413602 | 27.22° C | 59% | 1017.9 hPa | 0 mm | - | - | - |
| 1777412761 | 26.67° C | 58% | 1018.1 hPa | 0 mm | - | - | - |
| 1777411867 | 26.67° C | 59% | 1018.3 hPa | 0 mm | - | - | - |
| 1777410960 | 27.22° C | 59% | 1018.2 hPa | 0 mm | - | - | - |
| 1777410029 | 27.78° C | 57% | 1018.3 hPa | 0 mm | - | - | - |
| 1777409129 | 27.78° C | 56% | 1018.6 hPa | 0 mm | - | - | - |
| 1777408225 | 27.78° C | 58% | 1018.8 hPa | 0 mm | - | - | - |
| 1777407325 | 27.78° C | 57% | 1019.1 hPa | 0 mm | - | - | - |
| 1777406424 | 27.78° C | 57% | 1019.3 hPa | 0 mm | - | - | - |
| 1777405523 | 28.33° C | 54% | 1019.6 hPa | 0 mm | - | - | - |
| 1777404620 | 28.89° C | 54% | 1019.5 hPa | 0 mm | - | - | - |
| 1777403792 | 29.44° C | 53% | 1019.4 hPa | 0 mm | - | - | - |
| 1777402823 | 28.89° C | 54% | 1019.6 hPa | 0 mm | - | - | - |
| 1777401916 | 28.89° C | 55% | 1019.8 hPa | 0 mm | - | - | - |
| 1777401014 | 28.89° C | 55% | 1020 hPa | 0 mm | - | - | - |
| 1777400116 | 28.89° C | 58% | 1020.1 hPa | 0 mm | - | - | - |
* Rain latest hour (hover to see other rain measurements)
** Current wind speed in m/s (hover to see current wind gust speed)